createdAt,value
2023-04-22T00:01:35.264Z,9.27
2023-04-22T00:04:03.321Z,7.68
2023-04-22T00:06:31.688Z,7.15
2023-04-22T00:09:00.058Z,10.20
2023-04-22T00:11:29.743Z,8.70
2023-04-22T00:13:57.613Z,7.90
2023-04-22T00:16:26.489Z,10.98
2023-04-22T00:18:54.472Z,8.02
2023-04-22T00:21:22.310Z,10.27
2023-04-22T00:23:50.144Z,8.43
2023-04-22T00:26:17.987Z,6.88
2023-04-22T00:28:47.217Z,8.60
2023-04-22T00:31:15.325Z,8.20
2023-04-22T00:33:43.415Z,8.90
2023-04-22T00:36:11.445Z,8.40
2023-04-22T00:38:39.759Z,9.55
2023-04-22T00:41:08.900Z,8.55
2023-04-22T00:43:36.983Z,9.73
2023-04-22T00:46:06.534Z,7.13
2023-04-22T00:48:34.578Z,11.77
2023-04-22T00:51:02.604Z,8.70
2023-04-22T00:53:30.566Z,7.63
2023-04-22T00:55:58.817Z,6.88
2023-04-22T00:58:30.087Z,7.10
2023-04-22T01:00:58.190Z,9.73
2023-04-22T01:03:30.954Z,8.50
2023-04-22T01:05:59.019Z,5.70
2023-04-22T01:08:30.456Z,7.28
2023-04-22T01:10:58.605Z,7.70
2023-04-22T01:13:26.695Z,8.85
2023-04-22T01:15:54.975Z,6.75
2023-04-22T01:18:23.475Z,8.38
2023-04-22T01:20:53.141Z,7.40
2023-04-22T01:23:23.568Z,6.60
2023-04-22T01:25:51.401Z,7.88
2023-04-22T01:28:19.316Z,6.75
2023-04-22T01:30:47.420Z,7.65
2023-04-22T01:33:16.949Z,7.10
2023-04-22T01:35:44.971Z,7.07
2023-04-22T01:38:14.089Z,7.28
2023-04-22T01:40:43.980Z,6.13
2023-04-22T01:43:12.378Z,8.85
2023-04-22T01:45:40.525Z,6.22
2023-04-22T01:48:08.605Z,7.63
2023-04-22T01:50:36.707Z,8.55
2023-04-22T01:53:04.765Z,10.40
2023-04-22T01:55:36.064Z,9.13
2023-04-22T01:58:07.407Z,7.13
2023-04-22T02:00:35.753Z,7.30
2023-04-22T02:03:03.822Z,7.82
2023-04-22T02:05:31.775Z,11.32
2023-04-22T02:07:59.814Z,9.25
2023-04-22T02:10:27.639Z,7.93
2023-04-22T02:12:55.356Z,8.80
2023-04-22T02:15:24.898Z,9.80
2023-04-22T02:17:53.105Z,8.75
2023-04-22T02:20:21.465Z,8.45
2023-04-22T02:22:50.952Z,7.70
2023-04-22T02:25:19.579Z,7.87
2023-04-22T02:27:48.048Z,9.95
2023-04-22T02:30:16.279Z,8.13
2023-04-22T02:32:46.313Z,8.32
2023-04-22T02:35:14.649Z,9.48
2023-04-22T02:37:42.412Z,10.20
2023-04-22T02:40:10.832Z,7.57
2023-04-22T02:42:38.682Z,11.77
2023-04-22T02:45:08.456Z,11.60
2023-04-22T02:47:36.398Z,8.38
2023-04-22T02:50:07.116Z,9.67
2023-04-22T02:52:35.524Z,12.32
2023-04-22T02:55:04.131Z,9.93
2023-04-22T02:57:32.428Z,10.05
2023-04-22T03:00:00.794Z,9.45
2023-04-22T03:02:29.464Z,10.03
2023-04-22T03:04:57.381Z,11.60
2023-04-22T03:07:27.019Z,10.02
2023-04-22T03:09:55.929Z,11.40
2023-04-22T03:12:23.868Z,9.73
2023-04-22T03:14:53.218Z,9.63
2023-04-22T03:17:21.123Z,11.43
2023-04-22T03:19:49.528Z,9.45
2023-04-22T03:22:18.652Z,8.88
2023-04-22T03:24:49.026Z,10.57
2023-04-22T03:27:16.905Z,11.77
2023-04-22T03:29:44.982Z,12.55
2023-04-22T03:32:12.903Z,10.82
2023-04-22T03:34:41.511Z,9.40
2023-04-22T03:37:10.943Z,8.63
2023-04-22T03:39:39.554Z,10.73
2023-04-22T03:42:12.784Z,10.38
2023-04-22T03:44:40.971Z,8.65
2023-04-22T03:47:09.136Z,9.90
2023-04-22T03:49:37.934Z,8.63
2023-04-22T03:52:06.165Z,7.83
2023-04-22T03:54:34.180Z,10.65
2023-04-22T03:57:02.922Z,8.80
2023-04-22T03:59:32.705Z,7.63
2023-04-22T04:02:00.450Z,7.63
2023-04-22T04:04:30.554Z,8.43
2023-04-22T04:07:00.196Z,7.43
2023-04-22T04:09:28.690Z,7.22
2023-04-22T04:11:56.739Z,8.13
2023-04-22T04:14:24.678Z,7.07
2023-04-22T04:16:54.152Z,8.00
2023-04-22T04:19:22.111Z,9.07
2023-04-22T04:21:49.993Z,9.05
2023-04-22T04:24:18.062Z,7.70
2023-04-22T04:26:45.942Z,7.72
2023-04-22T04:29:14.698Z,12.77
2023-04-22T04:31:43.007Z,10.73
2023-04-22T04:34:12.606Z,9.45
2023-04-22T04:36:40.707Z,9.80
2023-04-22T04:39:09.735Z,8.60
2023-04-22T04:41:38.676Z,7.20
2023-04-22T04:44:07.407Z,7.65
2023-04-22T04:46:38.376Z,8.07
2023-04-22T04:49:06.496Z,7.18
2023-04-22T04:51:37.850Z,9.80
2023-04-22T04:54:06.245Z,9.67
2023-04-22T04:56:34.429Z,7.85
2023-04-22T04:59:02.364Z,9.70
2023-04-22T05:01:30.932Z,8.82
2023-04-22T05:03:58.986Z,8.70
2023-04-22T05:06:27.274Z,7.70
2023-04-22T05:08:57.338Z,7.07
2023-04-22T05:11:25.639Z,9.38
2023-04-22T05:13:53.634Z,10.93
2023-04-22T05:16:21.529Z,8.50
2023-04-22T05:18:49.897Z,9.97
2023-04-22T05:21:18.014Z,10.57
2023-04-22T05:23:45.932Z,8.52
2023-04-22T05:26:15.760Z,8.70
2023-04-22T05:28:43.860Z,9.38
2023-04-22T05:31:11.712Z,8.13
2023-04-22T05:33:39.581Z,7.00
2023-04-22T05:36:08.669Z,8.75
2023-04-22T05:38:36.555Z,8.63
2023-04-22T05:41:04.669Z,8.32
2023-04-22T05:43:48.056Z,9.33
2023-04-22T05:46:16.463Z,9.63
2023-04-22T05:48:44.089Z,12.20
2023-04-22T05:51:12.381Z,10.07
2023-04-22T05:53:40.761Z,11.13
2023-04-22T05:56:08.329Z,9.40
2023-04-22T05:58:38.483Z,8.43
2023-04-22T06:01:06.455Z,9.00
2023-04-22T06:03:34.743Z,8.43
2023-04-22T06:06:02.805Z,9.15
2023-04-22T06:08:33.844Z,9.47
2023-04-22T06:11:02.096Z,9.45
2023-04-22T06:13:30.481Z,8.85
2023-04-22T06:15:59.813Z,10.45
2023-04-22T06:18:28.344Z,9.10
2023-04-22T06:20:56.601Z,9.20
2023-04-22T06:23:24.719Z,9.10
2023-04-22T06:25:52.563Z,7.53
2023-04-22T06:28:20.561Z,11.13
2023-04-22T06:30:48.626Z,8.40
2023-04-22T06:33:17.856Z,8.37
2023-04-22T06:35:46.867Z,11.57
2023-04-22T06:38:14.821Z,7.25
2023-04-22T06:40:43.596Z,7.30
2023-04-22T06:43:11.475Z,9.18
2023-04-22T06:45:39.345Z,8.43
2023-04-22T06:48:07.309Z,6.65
2023-04-22T06:50:36.805Z,8.13
2023-04-22T06:53:05.178Z,7.85
2023-04-22T06:55:33.308Z,6.65
2023-04-22T06:58:01.397Z,7.63
2023-04-22T07:00:29.392Z,6.57
2023-04-22T07:02:57.206Z,9.48
2023-04-22T07:05:25.590Z,8.45
2023-04-22T07:07:54.853Z,5.80
2023-04-22T07:10:23.094Z,11.00
2023-04-22T07:12:51.186Z,7.72
2023-04-22T07:15:19.670Z,9.57
2023-04-22T07:17:47.748Z,8.27
2023-04-22T07:20:15.442Z,8.82
2023-04-22T07:22:43.705Z,9.23
2023-04-22T07:25:13.274Z,8.40
2023-04-22T07:27:41.326Z,6.85
2023-04-22T07:30:10.882Z,8.73
2023-04-22T07:32:39.011Z,8.20
2023-04-22T07:35:07.997Z,8.47
2023-04-22T07:37:35.769Z,6.75
2023-04-22T07:40:03.713Z,7.13
2023-04-22T07:42:33.086Z,7.35
2023-04-22T07:45:01.023Z,8.82
2023-04-22T07:47:28.677Z,8.20
2023-04-22T07:49:56.771Z,7.90
2023-04-22T07:52:24.681Z,5.25
2023-04-22T07:54:52.788Z,7.55
2023-04-22T07:57:22.361Z,6.40
2023-04-22T07:59:51.934Z,6.60
2023-04-22T08:02:20.096Z,5.65
2023-04-22T08:04:48.049Z,5.78
2023-04-22T08:07:32.656Z,7.18
2023-04-22T08:10:01.612Z,6.85
2023-04-22T08:12:31.052Z,6.90
2023-04-22T08:15:00.516Z,5.57
2023-04-22T08:17:30.138Z,5.78
2023-04-22T08:20:00.354Z,7.55
2023-04-22T08:22:28.050Z,5.47
2023-04-22T08:24:55.790Z,4.07
2023-04-22T08:27:24.069Z,4.03
2023-04-22T08:29:51.752Z,4.60
2023-04-22T08:32:21.037Z,6.10
2023-04-22T08:34:51.857Z,5.45
2023-04-22T08:37:23.333Z,6.27
2023-04-22T08:39:51.350Z,7.68
2023-04-22T08:42:23.058Z,4.95
2023-04-22T08:44:52.053Z,6.50
2023-04-22T08:47:22.191Z,5.88
2023-04-22T08:49:52.982Z,4.40
2023-04-22T08:52:21.252Z,6.82
2023-04-22T08:54:49.401Z,6.38
2023-04-22T08:57:18.670Z,8.55
2023-04-22T08:59:47.440Z,5.90
2023-04-22T09:02:20.911Z,7.50
2023-04-22T09:04:53.507Z,5.20
2023-04-22T09:07:25.310Z,4.75
2023-04-22T09:09:54.183Z,6.60
2023-04-22T09:12:22.363Z,5.88
2023-04-22T09:14:50.575Z,6.17
2023-04-22T09:17:19.572Z,5.78
2023-04-22T09:19:47.734Z,7.65
2023-04-22T09:22:17.381Z,4.88
2023-04-22T09:24:51.745Z,5.38
2023-04-22T09:27:21.847Z,7.50
2023-04-22T09:29:51.606Z,5.35
2023-04-22T09:32:20.346Z,6.18
2023-04-22T09:34:52.301Z,8.05
2023-04-22T09:37:25.158Z,7.50
2023-04-22T09:39:55.728Z,3.70
2023-04-22T09:42:23.862Z,6.82
2023-04-22T09:44:53.773Z,4.97
2023-04-22T09:47:23.856Z,4.82
2023-04-22T09:49:52.276Z,6.57
2023-04-22T09:52:28.150Z,6.73
2023-04-22T09:54:56.384Z,4.05
2023-04-22T09:57:24.417Z,4.70
2023-04-22T09:59:53.152Z,5.28
2023-04-22T10:02:30.500Z,4.82
2023-04-22T10:04:59.098Z,6.70
2023-04-22T10:07:31.865Z,5.03
2023-04-22T10:10:00.234Z,6.20
2023-04-22T10:12:35.857Z,6.78
2023-04-22T10:15:04.913Z,4.97
2023-04-22T10:17:34.985Z,5.10
2023-04-22T10:20:05.637Z,5.30
2023-04-22T10:22:36.728Z,6.20
2023-04-22T10:25:05.867Z,4.70
2023-04-22T10:27:33.565Z,5.53
2023-04-22T10:30:02.355Z,4.70
2023-04-22T10:32:31.079Z,4.93
2023-04-22T10:35:13.122Z,5.18
2023-04-22T10:37:49.124Z,5.85
2023-04-22T10:40:18.805Z,4.60
2023-04-22T10:42:51.173Z,5.17
2023-04-22T10:45:20.195Z,6.93
2023-04-22T10:47:48.161Z,6.20
2023-04-22T10:50:26.260Z,5.53
2023-04-22T10:52:57.576Z,6.20
2023-04-22T10:55:26.597Z,6.80
2023-04-22T10:57:55.337Z,4.43
2023-04-22T11:00:52.576Z,5.57
2023-04-22T11:03:28.323Z,5.45
2023-04-22T11:06:16.236Z,4.63
2023-04-22T11:08:48.007Z,5.10
2023-04-22T11:11:19.147Z,5.82
2023-04-22T11:13:50.355Z,4.65
2023-04-22T11:16:20.532Z,5.30
2023-04-22T11:18:49.521Z,4.07
2023-04-22T11:21:19.724Z,4.90
2023-04-22T11:23:53.202Z,8.15
2023-04-22T11:26:34.964Z,4.80
2023-04-22T11:29:02.814Z,5.13
2023-04-22T11:31:30.591Z,5.30
2023-04-22T11:34:01.002Z,6.17
2023-04-22T11:36:28.919Z,4.10
2023-04-22T11:38:58.658Z,4.75
2023-04-22T11:41:26.598Z,4.85
2023-04-22T11:43:55.117Z,4.43
2023-04-22T11:46:29.964Z,4.57
2023-04-22T11:49:13.035Z,5.03
2023-04-22T11:51:53.835Z,3.20
2023-04-22T11:54:32.930Z,4.45
2023-04-22T11:57:03.512Z,3.30
2023-04-22T11:59:31.631Z,2.63
2023-04-22T12:01:59.712Z,2.97
2023-04-22T12:04:27.792Z,5.07
2023-04-22T12:06:55.704Z,3.13
2023-04-22T12:09:26.027Z,6.93
2023-04-22T12:11:55.284Z,3.77
2023-04-22T12:14:30.978Z,5.15
2023-04-22T12:16:58.895Z,5.90
2023-04-22T12:19:27.770Z,3.80
2023-04-22T12:21:57.199Z,3.78
2023-04-22T12:24:29.589Z,3.83
2023-04-22T12:26:58.790Z,3.50
2023-04-22T12:29:32.774Z,4.10
2023-04-22T12:32:00.753Z,2.72
2023-04-22T12:34:28.886Z,3.92
2023-04-22T12:36:56.857Z,6.37
2023-04-22T12:39:24.937Z,3.00
2023-04-22T12:41:52.650Z,3.78
2023-04-22T12:44:23.795Z,3.65
2023-04-22T12:46:53.345Z,5.15
2023-04-22T12:49:21.216Z,2.70
2023-04-22T12:51:49.085Z,5.07
2023-04-22T12:54:18.285Z,3.10
2023-04-22T12:56:47.286Z,4.93
2023-04-22T12:59:15.952Z,2.67
2023-04-22T13:01:45.504Z,3.67
2023-04-22T13:04:13.837Z,2.60
2023-04-22T13:06:44.069Z,2.92
2023-04-22T13:09:12.993Z,2.70
2023-04-22T13:11:41.113Z,2.70
2023-04-22T13:14:09.481Z,3.27
2023-04-22T13:16:37.646Z,2.28
2023-04-22T13:19:07.035Z,1.85
2023-04-22T13:21:34.821Z,2.78
2023-04-22T13:24:03.658Z,3.22
2023-04-22T13:26:31.956Z,3.10
2023-04-22T13:29:02.139Z,5.97
2023-04-22T13:31:31.101Z,2.58
2023-04-22T13:33:59.111Z,1.90
2023-04-22T13:36:29.566Z,1.77
2023-04-22T13:38:58.662Z,2.17
2023-04-22T13:41:26.382Z,1.40
2023-04-22T13:43:56.048Z,2.03
2023-04-22T13:46:25.038Z,2.72
2023-04-22T13:48:52.803Z,1.60
2023-04-22T13:51:21.007Z,1.50
2023-04-22T13:53:50.444Z,3.10
2023-04-22T13:56:18.521Z,1.25
2023-04-22T13:58:46.466Z,1.30
2023-04-22T14:01:14.367Z,2.70
2023-04-22T14:03:43.333Z,1.40
2023-04-22T14:06:12.570Z,2.70
2023-04-22T14:08:42.112Z,1.02
2023-04-22T14:11:11.363Z,1.15
2023-04-22T14:13:39.951Z,2.55
2023-04-22T14:16:10.046Z,3.27
2023-04-22T14:18:39.650Z,1.35
2023-04-22T14:21:09.366Z,1.70
2023-04-22T14:23:38.551Z,1.10
2023-04-22T14:26:07.139Z,1.38
2023-04-22T14:28:36.840Z,1.20
2023-04-22T14:31:06.268Z,1.23
2023-04-22T14:33:34.554Z,1.95
2023-04-22T14:36:02.789Z,1.42
2023-04-22T14:38:31.579Z,2.97
2023-04-22T14:40:59.928Z,1.03
2023-04-22T14:43:27.898Z,2.55
2023-04-22T14:45:57.152Z,2.38
2023-04-22T14:48:30.194Z,1.95
2023-04-22T14:50:58.010Z,0.95
2023-04-22T14:53:25.656Z,4.73
2023-04-22T14:55:56.240Z,1.45
2023-04-22T14:58:24.318Z,1.38
2023-04-22T15:00:52.231Z,1.67
2023-04-22T15:03:21.816Z,1.08
2023-04-22T15:05:50.878Z,1.17
2023-04-22T15:08:18.703Z,1.27
2023-04-22T15:10:48.185Z,1.52
2023-04-22T15:13:15.976Z,2.08
2023-04-22T15:15:43.887Z,1.55
2023-04-22T15:18:12.212Z,1.23
2023-04-22T15:20:41.576Z,1.33
2023-04-22T15:23:09.507Z,2.20
2023-04-22T15:25:37.444Z,1.25
2023-04-22T15:28:05.551Z,1.90
2023-04-22T15:30:33.374Z,1.27
2023-04-22T15:33:01.421Z,2.00
2023-04-22T15:35:29.114Z,1.58
2023-04-22T15:37:58.917Z,2.13
2023-04-22T15:40:27.272Z,1.90
2023-04-22T15:42:55.387Z,1.63
2023-04-22T15:45:23.288Z,1.70
2023-04-22T15:47:52.384Z,2.28
2023-04-22T15:50:23.536Z,1.33
2023-04-22T15:52:51.346Z,2.13
2023-04-22T15:55:20.756Z,1.43
2023-04-22T15:57:48.839Z,3.15
2023-04-22T16:00:21.407Z,5.47
2023-04-22T16:02:55.154Z,2.78
2023-04-22T16:05:25.078Z,3.13
2023-04-22T16:07:54.125Z,3.67
2023-04-22T16:10:26.250Z,1.90
2023-04-22T16:12:54.104Z,1.73
2023-04-22T16:15:23.561Z,2.65
2023-04-22T16:17:51.736Z,2.17
2023-04-22T16:20:20.008Z,2.03
2023-04-22T16:22:48.907Z,1.73
2023-04-22T16:25:16.828Z,3.97
2023-04-22T16:27:46.060Z,3.15
2023-04-22T16:30:16.219Z,2.20
2023-04-22T16:32:44.285Z,3.50
2023-04-22T16:35:12.956Z,3.20
2023-04-22T16:37:41.137Z,2.00
2023-04-22T16:40:10.564Z,1.60
2023-04-22T16:42:38.708Z,3.88
2023-04-22T16:45:09.630Z,3.10
2023-04-22T16:47:37.760Z,3.33
2023-04-22T16:50:07.637Z,2.28
2023-04-22T16:52:35.612Z,2.85
2023-04-22T16:55:05.323Z,1.75
2023-04-22T16:57:33.497Z,2.50
2023-04-22T17:00:01.141Z,2.53
2023-04-22T17:02:31.172Z,2.08
2023-04-22T17:05:01.120Z,2.65
2023-04-22T17:07:28.997Z,4.35
2023-04-22T17:09:56.864Z,4.47
2023-04-22T17:12:24.690Z,2.22
2023-04-22T17:14:52.308Z,3.45
2023-04-22T17:17:20.152Z,2.10
2023-04-22T17:19:49.152Z,2.75
2023-04-22T17:22:17.035Z,2.87
2023-04-22T17:24:45.128Z,3.22
2023-04-22T17:27:15.029Z,2.70
2023-04-22T17:29:43.139Z,3.17
2023-04-22T17:32:10.941Z,3.10
2023-04-22T17:34:38.655Z,2.47
2023-04-22T17:37:08.072Z,2.17
2023-04-22T17:39:35.844Z,2.65
2023-04-22T17:42:03.510Z,2.58
2023-04-22T17:44:31.838Z,2.97
2023-04-22T17:46:59.624Z,3.13
2023-04-22T17:49:27.507Z,3.50
2023-04-22T17:51:55.851Z,2.90
2023-04-22T17:54:25.470Z,2.90
2023-04-22T17:56:53.015Z,2.78
2023-04-22T17:59:21.020Z,2.67
2023-04-22T18:01:49.071Z,3.70
2023-04-22T18:04:17.027Z,3.20
2023-04-22T18:06:45.159Z,1.95
2023-04-22T18:09:12.778Z,2.60
2023-04-22T18:11:41.807Z,3.60
2023-04-22T18:14:10.111Z,2.67
2023-04-22T18:16:38.139Z,4.07
2023-04-22T18:19:06.873Z,2.25
2023-04-22T18:21:35.044Z,2.33
2023-04-22T18:24:03.949Z,3.20
2023-04-22T18:26:31.582Z,2.03
2023-04-22T18:29:00.792Z,2.13
2023-04-22T18:31:29.410Z,3.33
2023-04-22T18:33:57.278Z,4.40
2023-04-22T18:36:25.570Z,3.90
2023-04-22T18:38:53.575Z,5.05
2023-04-22T18:41:21.972Z,4.88
2023-04-22T18:43:49.540Z,4.85
2023-04-22T18:46:19.132Z,5.63
2023-04-22T18:48:46.737Z,3.93
2023-04-22T18:51:14.871Z,5.30
2023-04-22T18:53:42.784Z,4.13
2023-04-22T18:56:10.900Z,3.45
2023-04-22T18:58:38.777Z,3.33
2023-04-22T19:01:06.912Z,4.00
2023-04-22T19:03:36.757Z,4.38
2023-04-22T19:06:05.353Z,4.88
2023-04-22T19:08:33.393Z,5.72
2023-04-22T19:11:02.212Z,5.68
2023-04-22T19:13:30.499Z,8.20
2023-04-22T19:15:58.517Z,10.00
2023-04-22T19:18:27.450Z,9.60
2023-04-22T19:20:56.545Z,12.50
2023-04-22T19:23:24.198Z,10.10
2023-04-22T19:25:53.537Z,10.03
2023-04-22T19:28:21.172Z,12.25
2023-04-22T19:30:49.088Z,10.20
2023-04-22T19:33:16.920Z,14.55
2023-04-22T19:35:45.966Z,10.45
2023-04-22T19:38:18.882Z,10.00
2023-04-22T19:40:47.767Z,11.05
2023-04-22T19:43:17.132Z,10.48
2023-04-22T19:45:44.984Z,11.48
2023-04-22T19:48:13.374Z,13.93
2023-04-22T19:50:44.741Z,20.00
2023-04-22T19:53:12.945Z,14.82
2023-04-22T19:55:44.141Z,18.10
2023-04-22T19:58:12.693Z,15.82
2023-04-22T20:00:42.543Z,15.40
2023-04-22T20:03:13.253Z,15.07
2023-04-22T20:05:42.453Z,12.00
2023-04-22T20:08:11.413Z,26.88
2023-04-22T20:10:39.990Z,57.28
2023-04-22T20:13:09.454Z,21.85
2023-04-22T20:15:37.690Z,14.53
2023-04-22T20:18:06.850Z,9.65
2023-04-22T20:20:35.114Z,11.15
2023-04-22T20:23:10.327Z,16.63
2023-04-22T20:25:39.682Z,14.85
2023-04-22T20:28:11.055Z,18.73
2023-04-22T20:30:39.203Z,20.40
2023-04-22T20:33:08.605Z,19.88
2023-04-22T20:35:38.591Z,16.23
2023-04-22T20:38:08.424Z,14.80
2023-04-22T20:40:36.620Z,15.48
2023-04-22T20:43:04.531Z,14.63
2023-04-22T20:45:33.815Z,12.43
2023-04-22T20:48:01.522Z,9.53
2023-04-22T20:50:33.439Z,8.07
2023-04-22T20:53:01.552Z,4.95
2023-04-22T20:55:29.622Z,4.70
2023-04-22T20:57:57.483Z,4.57
2023-04-22T21:00:26.099Z,4.60
2023-04-22T21:02:55.977Z,5.60
2023-04-22T21:05:24.350Z,4.63
2023-04-22T21:07:53.702Z,5.05
2023-04-22T21:10:22.721Z,7.15
2023-04-22T21:12:51.191Z,13.57
2023-04-22T21:15:20.039Z,21.70
2023-04-22T21:17:51.869Z,17.80
2023-04-22T21:20:24.542Z,13.95
2023-04-22T21:22:54.853Z,10.00
2023-04-22T21:25:24.508Z,11.77
2023-04-22T21:27:52.905Z,10.70
2023-04-22T21:30:22.139Z,13.45
2023-04-22T21:32:49.845Z,13.27
2023-04-22T21:35:18.229Z,14.02
2023-04-22T21:37:47.569Z,11.47
2023-04-22T21:40:16.062Z,15.75
2023-04-22T21:42:43.923Z,10.07
2023-04-22T21:45:12.187Z,11.75
2023-04-22T21:47:40.104Z,10.55
2023-04-22T21:50:09.046Z,9.70
2023-04-22T21:52:36.741Z,9.18
2023-04-22T21:55:06.906Z,11.25
2023-04-22T21:57:35.092Z,9.63
2023-04-22T22:00:02.799Z,8.52
2023-04-22T22:02:30.887Z,6.23
2023-04-22T22:04:58.737Z,6.10
2023-04-22T22:07:26.847Z,7.53
2023-04-22T22:09:54.895Z,6.63
2023-04-22T22:12:24.458Z,7.95
2023-04-22T22:14:52.503Z,6.90
2023-04-22T22:17:20.632Z,9.10
2023-04-22T22:19:48.719Z,9.43
2023-04-22T22:22:16.709Z,7.68
2023-04-22T22:24:45.542Z,6.57
2023-04-22T22:27:13.253Z,7.37
2023-04-22T22:29:42.812Z,7.25
2023-04-22T22:32:10.699Z,8.90
2023-04-22T22:34:39.083Z,6.60
2023-04-22T22:37:07.134Z,8.27
2023-04-22T22:39:34.707Z,9.90
2023-04-22T22:42:03.191Z,9.05
2023-04-22T22:44:31.472Z,8.80
2023-04-22T22:47:00.595Z,8.45
2023-04-22T22:49:28.734Z,8.77
2023-04-22T22:51:57.058Z,9.77
2023-04-22T22:54:25.176Z,8.55
2023-04-22T22:56:53.092Z,9.38
2023-04-22T22:59:20.884Z,7.88
2023-04-22T23:01:48.776Z,7.18
2023-04-22T23:04:17.997Z,7.90
2023-04-22T23:06:46.922Z,6.97
2023-04-22T23:09:18.804Z,7.85
2023-04-22T23:11:48.544Z,7.72
2023-04-22T23:14:16.338Z,7.72
2023-04-22T23:16:44.034Z,6.53
2023-04-22T23:19:12.764Z,6.85
2023-04-22T23:21:42.622Z,6.40
2023-04-22T23:24:11.929Z,5.95
2023-04-22T23:26:39.987Z,4.88
2023-04-22T23:29:08.210Z,6.10
2023-04-22T23:31:36.320Z,5.72
2023-04-22T23:34:06.428Z,5.28
2023-04-22T23:36:36.590Z,7.53
2023-04-22T23:39:08.057Z,7.55
2023-04-22T23:41:35.696Z,7.83
2023-04-22T23:44:03.764Z,5.78
2023-04-22T23:46:31.755Z,6.80
2023-04-22T23:48:59.428Z,6.35
2023-04-22T23:51:28.668Z,5.68
2023-04-22T23:53:56.565Z,6.07
2023-04-22T23:56:26.782Z,8.10
2023-04-22T23:58:55.414Z,8.52
